createdAt,value
2022-08-01T00:00:16.436Z,99788.28
2022-08-01T00:05:17.841Z,99785.56
2022-08-01T00:10:19.256Z,99778.38
2022-08-01T00:15:20.676Z,99765.22
2022-08-01T00:20:22.104Z,99758.88
2022-08-01T00:25:34.400Z,99760.50
2022-08-01T00:30:36.609Z,99760.25
2022-08-01T00:35:38.008Z,99752.25
2022-08-01T00:40:39.443Z,99763.81
2022-08-01T00:45:40.846Z,99762.19
2022-08-01T00:50:42.380Z,99758.34
2022-08-01T00:55:43.782Z,99755.84
2022-08-01T01:00:53.859Z,99759.97
2022-08-01T01:06:19.032Z,99753.09
2022-08-01T01:11:29.175Z,99750.34
2022-08-01T01:16:30.572Z,99754.75
2022-08-01T01:21:49.641Z,99749.53
2022-08-01T01:27:11.635Z,99747.88
2022-08-01T01:32:34.744Z,99748.97
2022-08-01T01:37:36.274Z,99742.63
2022-08-01T01:42:37.729Z,99739.63
2022-08-01T01:47:39.138Z,99740.16
2022-08-01T01:52:40.988Z,99736.31
2022-08-01T01:57:42.640Z,99735.50
2022-08-01T02:02:44.197Z,99734.94
2022-08-01T02:07:45.681Z,99733.00
2022-08-01T02:12:50.777Z,99737.97
2022-08-01T02:17:52.240Z,99745.13
2022-08-01T02:22:56.934Z,99744.03
2022-08-01T02:28:05.684Z,99745.13
2022-08-01T02:33:21.852Z,99748.97
2022-08-01T02:38:24.492Z,99758.06
2022-08-01T02:43:26.137Z,99765.19
2022-08-01T02:48:27.669Z,99768.22
2022-08-01T02:53:38.992Z,99762.44
2022-08-01T02:58:45.861Z,99762.44
2022-08-01T03:03:47.276Z,99758.59
2022-08-01T03:08:49.593Z,99758.34
2022-08-01T03:13:51.445Z,99761.09
2022-08-01T03:18:54.085Z,99764.94
2022-08-01T03:23:57.980Z,99766.84
2022-08-01T03:29:11.805Z,99769.34
2022-08-01T03:34:13.208Z,99758.88
2022-08-01T03:39:15.950Z,99767.69
2022-08-01T03:44:19.877Z,99767.69
2022-08-01T03:49:23.396Z,99768.22
2022-08-01T03:54:25.745Z,99764.09
2022-08-01T03:59:27.145Z,99770.44
2022-08-01T04:04:29.256Z,99770.44
2022-08-01T04:09:32.421Z,99773.44
2022-08-01T04:14:33.939Z,99779.75
2022-08-01T04:19:35.372Z,99782.50
2022-08-01T04:24:36.904Z,99778.13
2022-08-01T04:29:38.333Z,99787.19
2022-08-01T04:34:40.939Z,99791.88
2022-08-01T04:39:50.467Z,99795.44
2022-08-01T04:44:52.677Z,99801.22
2022-08-01T04:49:54.472Z,99802.88
2022-08-01T04:54:55.870Z,99811.13
2022-08-01T04:59:57.798Z,99807.78
2022-08-01T05:04:59.363Z,99811.38
2022-08-01T05:10:02.204Z,99805.88
2022-08-01T05:15:11.727Z,99825.41
2022-08-01T05:20:14.510Z,99831.97
2022-08-01T05:25:20.364Z,99828.72
2022-08-01T05:30:26.383Z,99821.56
2022-08-01T05:35:48.997Z,99825.13
2022-08-01T05:40:49.199Z,99818.00
2022-08-01T05:45:50.647Z,99823.75
2022-08-01T05:50:58.236Z,99811.13
2022-08-01T05:56:00.199Z,99832.56
2022-08-01T06:01:01.633Z,99840.53
2022-08-01T06:06:03.480Z,99836.41
2022-08-01T06:11:04.924Z,99847.66
2022-08-01T06:16:06.358Z,99848.22
2022-08-01T06:21:07.837Z,99850.16
2022-08-01T06:26:09.490Z,99854.00
2022-08-01T06:31:13.010Z,99855.66
2022-08-01T06:36:14.422Z,99873.78
2022-08-01T06:41:15.821Z,99876.84
2022-08-01T06:46:17.241Z,99882.63
2022-08-01T06:51:20.815Z,99886.75
2022-08-01T06:56:23.187Z,99893.03
2022-08-01T07:01:24.662Z,99890.03
2022-08-01T07:06:26.181Z,99893.63
2022-08-01T07:11:27.593Z,99900.19
2022-08-01T07:16:29.012Z,99901.03
2022-08-01T07:21:39.915Z,99907.91
2022-08-01T07:26:53.335Z,99910.13
2022-08-01T07:31:56.396Z,99896.66
2022-08-01T07:36:57.872Z,99898.56
2022-08-01T07:42:07.218Z,99901.03
2022-08-01T07:47:09.669Z,99904.06
2022-08-01T07:52:11.109Z,99900.78
2022-08-01T07:57:12.579Z,99895.28
2022-08-01T08:02:14.058Z,99904.31
2022-08-01T08:07:15.548Z,99896.06
2022-08-01T08:12:16.946Z,99891.16
2022-08-01T08:17:19.920Z,99909.53
2022-08-01T08:22:21.324Z,99915.63
2022-08-01T08:27:22.730Z,99908.19
2022-08-01T08:32:24.139Z,99906.00
2022-08-01T08:37:25.549Z,99897.75
2022-08-01T08:42:32.996Z,99898.06
2022-08-01T08:47:34.412Z,99909.06
2022-08-01T08:52:36.419Z,99910.41
2022-08-01T08:57:40.388Z,99904.09
2022-08-01T09:02:45.707Z,99910.13
2022-08-01T09:07:47.239Z,99901.59
2022-08-01T09:13:11.806Z,99907.66
2022-08-01T09:18:41.826Z,99915.63
2022-08-01T09:23:54.459Z,99906.56
2022-08-01T09:28:56.153Z,99914.81
2022-08-01T09:33:59.173Z,99906.00
2022-08-01T09:39:12.358Z,99904.63
2022-08-01T09:44:13.977Z,99904.09
2022-08-01T09:49:15.670Z,99896.91
2022-08-01T09:54:17.373Z,99909.31
2022-08-01T09:59:19.304Z,99905.72
2022-08-01T10:04:21.598Z,99905.19
2022-08-01T10:09:35.947Z,99907.09
2022-08-01T10:14:42.033Z,99894.19
2022-08-01T10:19:50.389Z,99903.81
2022-08-01T10:24:55.945Z,99902.16
2022-08-01T10:30:08.593Z,99914.28
2022-08-01T10:35:45.829Z,99907.94
2022-08-01T10:40:42.708Z,99917.84
2022-08-01T10:45:44.348Z,99925.25
2022-08-01T10:50:49.857Z,99933.25
2022-08-01T10:55:57.382Z,99937.66
2022-08-01T11:01:16.086Z,99930.75
2022-08-01T11:06:22.564Z,99926.06
2022-08-01T11:11:24.353Z,99926.66
2022-08-01T11:16:26.837Z,99921.13
2022-08-01T11:21:58.961Z,99918.66
2022-08-01T11:27:17.633Z,99915.06
2022-08-01T11:32:25.505Z,99893.63
2022-08-01T11:37:30.600Z,99902.69
2022-08-01T11:42:32.369Z,99895.84
2022-08-01T11:47:48.133Z,99913.44
2022-08-01T11:52:51.701Z,99924.97
2022-08-01T11:58:06.260Z,99921.16
2022-08-01T12:03:08.558Z,99931.31
2022-08-01T12:08:09.983Z,99922.53
2022-08-01T12:13:11.557Z,99932.16
2022-08-01T12:18:12.969Z,99928.59
2022-08-01T12:23:15.405Z,99918.38
2022-08-01T12:28:18.782Z,99935.19
2022-08-01T12:33:21.225Z,99923.34
2022-08-01T12:38:27.735Z,99929.13
2022-08-01T12:43:29.689Z,99915.91
2022-08-01T12:48:31.360Z,99915.91
2022-08-01T12:53:40.566Z,99912.88
2022-08-01T12:58:43.013Z,99922.25
2022-08-01T13:03:58.353Z,99925.28
2022-08-01T13:09:06.464Z,99921.41
2022-08-01T13:14:07.990Z,99919.22
2022-08-01T13:19:09.406Z,99925.00
2022-08-01T13:24:13.050Z,99912.38
2022-08-01T13:29:15.992Z,99914.00
2022-08-01T13:34:17.395Z,99914.31
2022-08-01T13:39:37.239Z,99925.03
2022-08-01T13:44:38.672Z,99916.78
2022-08-01T13:49:40.798Z,99923.94
2022-08-01T13:54:42.493Z,99917.28
2022-08-01T13:59:43.928Z,99923.91
2022-08-01T14:04:45.329Z,99921.97
2022-08-01T14:10:04.884Z,99945.91
2022-08-01T14:15:08.563Z,99933.81
2022-08-01T14:20:11.289Z,99937.41
2022-08-01T14:25:12.689Z,99931.06
2022-08-01T14:30:25.594Z,99931.63
2022-08-01T14:35:27.141Z,99941.78
2022-08-01T14:40:28.616Z,99950.06
2022-08-01T14:45:30.089Z,99947.59
2022-08-01T14:50:31.725Z,99934.06
2022-08-01T14:55:33.138Z,99951.97
2022-08-01T15:00:35.014Z,99963.81
2022-08-01T15:05:37.178Z,99951.97
2022-08-01T15:10:38.778Z,99948.13
2022-08-01T15:15:40.173Z,99963.81
2022-08-01T15:20:41.628Z,99958.59
2022-08-01T15:25:43.029Z,99951.41
2022-08-01T15:30:44.433Z,99958.59
2022-08-01T15:35:45.898Z,99963.25
2022-08-01T15:40:47.305Z,99962.97
2022-08-01T15:45:49.192Z,99976.72
2022-08-01T15:50:50.933Z,99966.56
2022-08-01T15:55:52.962Z,99962.44
2022-08-01T16:00:54.417Z,99968.47
2022-08-01T16:05:55.813Z,99968.75
2022-08-01T16:10:57.234Z,99966.28
2022-08-01T16:15:59.517Z,99971.22
2022-08-01T16:21:01.016Z,99969.31
2022-08-01T16:26:02.540Z,99973.69
2022-08-01T16:31:14.953Z,99966.56
2022-08-01T16:36:25.477Z,99976.47
2022-08-01T16:41:27.235Z,99970.41
2022-08-01T16:46:28.953Z,99969.84
2022-08-01T16:51:32.536Z,99965.72
2022-08-01T16:56:34.428Z,99970.41
2022-08-01T17:01:59.739Z,99967.94
2022-08-01T17:06:57.794Z,99969.00
2022-08-01T17:11:59.213Z,99980.31
2022-08-01T17:17:00.622Z,99971.22
2022-08-01T17:22:02.176Z,99979.47
2022-08-01T17:27:04.259Z,99975.06
2022-08-01T17:32:07.118Z,99985.00
2022-08-01T17:37:09.037Z,99987.47
2022-08-01T17:42:10.999Z,99990.50
2022-08-01T17:47:14.649Z,99978.09
2022-08-01T17:52:26.057Z,99996.53
2022-08-01T17:57:30.924Z,100000.94
2022-08-01T18:02:32.342Z,100011.97
2022-08-01T18:08:01.432Z,100000.66
2022-08-01T18:12:55.278Z,100001.50
2022-08-01T18:17:57.837Z,100005.34
2022-08-01T18:22:59.241Z,100027.09
2022-08-01T18:28:22.539Z,100024.88
2022-08-01T18:33:22.437Z,100020.22
2022-08-01T18:38:24.273Z,100025.72
2022-08-01T18:43:25.809Z,100030.38
2022-08-01T18:48:27.229Z,100050.72
2022-08-01T18:53:28.636Z,100045.50
2022-08-01T18:58:30.065Z,100058.44
2022-08-01T19:03:32.290Z,100060.34
2022-08-01T19:08:33.695Z,100066.16
2022-08-01T19:13:35.389Z,100068.09
2022-08-01T19:18:38.050Z,100078.78
2022-08-01T19:23:58.373Z,100080.75
2022-08-01T19:29:02.748Z,100087.03
2022-08-01T19:34:04.161Z,100093.66
2022-08-01T19:39:06.062Z,100105.47
2022-08-01T19:44:07.790Z,100111.81
2022-08-01T19:49:12.484Z,100129.97
2022-08-01T19:54:13.989Z,100134.34
2022-08-01T19:59:16.821Z,100131.31
2022-08-01T20:04:18.305Z,100138.75
2022-08-01T20:09:19.925Z,100143.97
2022-08-01T20:14:25.147Z,100147.81
2022-08-01T20:19:26.639Z,100162.16
2022-08-01T20:24:28.813Z,100160.47
2022-08-01T20:29:32.321Z,100169.88
2022-08-01T20:34:37.873Z,100165.97
2022-08-01T20:39:43.008Z,100164.59
2022-08-01T20:44:45.698Z,100167.38
2022-08-01T20:49:47.098Z,100181.38
2022-08-01T20:54:48.506Z,100175.88
2022-08-01T21:00:01.864Z,100181.63
2022-08-01T21:05:07.293Z,100184.06
2022-08-01T21:10:09.292Z,100180.16
2022-08-01T21:15:31.242Z,100181.59
2022-08-01T21:20:33.524Z,100191.25
2022-08-01T21:25:35.128Z,100188.19
2022-08-01T21:30:36.593Z,100181.03
2022-08-01T21:35:38.042Z,100189.56
2022-08-01T21:40:39.468Z,100187.34
2022-08-01T21:45:57.414Z,100190.13
2022-08-01T21:51:02.628Z,100197.53
2022-08-01T21:56:13.505Z,100200.84
2022-08-01T22:01:21.509Z,100206.06
2022-08-01T22:06:22.984Z,100210.16
2022-08-01T22:11:30.805Z,100214.31
2022-08-01T22:16:32.808Z,100219.81
2022-08-01T22:21:34.221Z,100225.84
2022-08-01T22:26:36.822Z,100230.53
2022-08-01T22:31:38.299Z,100227.19
2022-08-01T22:36:39.710Z,100224.13
2022-08-01T22:42:01.939Z,100240.09
2022-08-01T22:47:44.088Z,100240.41
2022-08-01T22:53:11.470Z,100227.06
2022-08-01T22:58:12.916Z,100235.69
2022-08-01T23:03:28.553Z,100240.94
2022-08-01T23:08:32.988Z,100238.66
2022-08-01T23:13:34.413Z,100237.84
2022-08-01T23:18:35.837Z,100245.84
2022-08-01T23:23:46.030Z,100239.50
2022-08-01T23:28:47.429Z,100239.75
2022-08-01T23:33:48.889Z,100238.88
2022-08-01T23:38:50.293Z,100245.25
2022-08-01T23:43:52.313Z,100243.63
2022-08-01T23:48:54.049Z,100241.41
2022-08-01T23:53:55.525Z,100239.25
2022-08-01T23:58:56.926Z,100238.91
